sensor_id;sensor_type;location;lat;lon;timestamp;P1;durP1;ratioP1;P2;durP2;ratioP2
15271;SDS011;7737;51.578;7.268;2022-07-04T00:01:05;63.50;;;60.60;;
15271;SDS011;7737;51.578;7.268;2022-07-04T00:03:32;61.45;;;58.60;;
15271;SDS011;7737;51.578;7.268;2022-07-04T00:05:58;57.03;;;54.35;;
15271;SDS011;7737;51.578;7.268;2022-07-04T00:08:25;62.22;;;59.20;;
15271;SDS011;7737;51.578;7.268;2022-07-04T00:10:51;51.42;;;49.03;;
15271;SDS011;7737;51.578;7.268;2022-07-04T00:13:19;43.67;;;41.55;;
15271;SDS011;7737;51.578;7.268;2022-07-04T00:15:46;44.63;;;42.38;;
15271;SDS011;7737;51.578;7.268;2022-07-04T00:18:12;40.92;;;38.72;;
15271;SDS011;7737;51.578;7.268;2022-07-04T00:20:39;27.38;;;26.05;;
15271;SDS011;7737;51.578;7.268;2022-07-04T00:23:05;16.15;;;15.25;;
15271;SDS011;7737;51.578;7.268;2022-07-04T00:25:32;13.55;;;12.88;;
15271;SDS011;7737;51.578;7.268;2022-07-04T00:27:58;11.25;;;10.65;;
15271;SDS011;7737;51.578;7.268;2022-07-04T00:30:26;8.20;;;7.82;;
15271;SDS011;7737;51.578;7.268;2022-07-04T00:32:53;6.32;;;5.93;;
15271;SDS011;7737;51.578;7.268;2022-07-04T00:35:19;5.40;;;5.10;;
15271;SDS011;7737;51.578;7.268;2022-07-04T00:37:46;5.03;;;4.72;;
15271;SDS011;7737;51.578;7.268;2022-07-04T00:40:12;5.78;;;5.18;;
15271;SDS011;7737;51.578;7.268;2022-07-04T00:42:39;4.05;;;3.75;;
15271;SDS011;7737;51.578;7.268;2022-07-04T00:45:06;3.25;;;3.00;;
15271;SDS011;7737;51.578;7.268;2022-07-04T00:47:35;4.30;;;4.00;;
15271;SDS011;7737;51.578;7.268;2022-07-04T00:50:01;3.33;;;2.58;;
15271;SDS011;7737;51.578;7.268;2022-07-04T00:52:28;3.75;;;3.15;;
15271;SDS011;7737;51.578;7.268;2022-07-04T00:54:55;4.43;;;4.15;;
15271;SDS011;7737;51.578;7.268;2022-07-04T00:57:22;3.38;;;2.85;;
15271;SDS011;7737;51.578;7.268;2022-07-04T00:59:48;2.90;;;2.70;;
15271;SDS011;7737;51.578;7.268;2022-07-04T01:02:15;2.85;;;2.65;;
15271;SDS011;7737;51.578;7.268;2022-07-04T01:04:42;3.50;;;2.92;;
15271;SDS011;7737;51.578;7.268;2022-07-04T01:07:09;2.85;;;2.65;;
15271;SDS011;7737;51.578;7.268;2022-07-04T01:09:37;2.95;;;2.75;;
15271;SDS011;7737;51.578;7.268;2022-07-04T01:12:04;3.13;;;2.70;;
15271;SDS011;7737;51.578;7.268;2022-07-04T01:14:31;3.75;;;3.35;;
15271;SDS011;7737;51.578;7.268;2022-07-04T01:16:58;2.67;;;2.33;;
15271;SDS011;7737;51.578;7.268;2022-07-04T01:19:24;2.90;;;2.60;;
15271;SDS011;7737;51.578;7.268;2022-07-04T01:21:52;3.72;;;2.25;;
15271;SDS011;7737;51.578;7.268;2022-07-04T01:24:19;4.72;;;2.00;;
15271;SDS011;7737;51.578;7.268;2022-07-04T01:26:45;3.90;;;2.45;;
15271;SDS011;7737;51.578;7.268;2022-07-04T01:29:11;2.08;;;1.90;;
15271;SDS011;7737;51.578;7.268;2022-07-04T01:31:38;2.35;;;2.15;;
15271;SDS011;7737;51.578;7.268;2022-07-04T01:34:04;2.97;;;2.55;;
15271;SDS011;7737;51.578;7.268;2022-07-04T01:36:31;2.50;;;2.30;;
15271;SDS011;7737;51.578;7.268;2022-07-04T01:39:00;3.13;;;2.40;;
15271;SDS011;7737;51.578;7.268;2022-07-04T01:41:32;2.58;;;2.17;;
15271;SDS011;7737;51.578;7.268;2022-07-04T01:43:59;2.08;;;1.98;;
15271;SDS011;7737;51.578;7.268;2022-07-04T01:46:25;2.38;;;2.10;;
15271;SDS011;7737;51.578;7.268;2022-07-04T01:48:52;3.92;;;2.60;;
15271;SDS011;7737;51.578;7.268;2022-07-04T01:51:18;2.13;;;1.45;;
15271;SDS011;7737;51.578;7.268;2022-07-04T01:53:45;3.83;;;1.92;;
15271;SDS011;7737;51.578;7.268;2022-07-04T01:56:13;2.75;;;1.42;;
15271;SDS011;7737;51.578;7.268;2022-07-04T01:58:39;1.88;;;1.52;;
15271;SDS011;7737;51.578;7.268;2022-07-04T02:01:05;4.45;;;2.42;;
15271;SDS011;7737;51.578;7.268;2022-07-04T02:03:49;3.33;;;2.30;;
15271;SDS011;7737;51.578;7.268;2022-07-04T02:06:16;4.00;;;2.58;;
15271;SDS011;7737;51.578;7.268;2022-07-04T02:08:42;3.60;;;2.33;;
15271;SDS011;7737;51.578;7.268;2022-07-04T02:11:36;2.75;;;2.40;;
15271;SDS011;7737;51.578;7.268;2022-07-04T02:14:21;3.78;;;2.05;;
15271;SDS011;7737;51.578;7.268;2022-07-04T02:16:47;2.05;;;1.80;;
15271;SDS011;7737;51.578;7.268;2022-07-04T02:19:14;2.90;;;2.00;;
15271;SDS011;7737;51.578;7.268;2022-07-04T02:21:41;2.13;;;1.90;;
15271;SDS011;7737;51.578;7.268;2022-07-04T02:24:07;3.58;;;1.70;;
15271;SDS011;7737;51.578;7.268;2022-07-04T02:26:34;4.32;;;1.90;;
15271;SDS011;7737;51.578;7.268;2022-07-04T02:29:01;3.08;;;1.73;;
15271;SDS011;7737;51.578;7.268;2022-07-04T02:31:28;3.20;;;2.10;;
15271;SDS011;7737;51.578;7.268;2022-07-04T02:33:54;3.92;;;2.38;;
15271;SDS011;7737;51.578;7.268;2022-07-04T02:36:21;5.20;;;1.98;;
15271;SDS011;7737;51.578;7.268;2022-07-04T02:38:47;2.85;;;1.63;;
15271;SDS011;7737;51.578;7.268;2022-07-04T02:41:14;2.80;;;2.05;;
15271;SDS011;7737;51.578;7.268;2022-07-04T02:43:40;2.67;;;1.75;;
15271;SDS011;7737;51.578;7.268;2022-07-04T02:46:08;2.45;;;1.55;;
15271;SDS011;7737;51.578;7.268;2022-07-04T02:48:34;3.83;;;1.95;;
15271;SDS011;7737;51.578;7.268;2022-07-04T02:51:01;2.67;;;1.60;;
15271;SDS011;7737;51.578;7.268;2022-07-04T02:53:27;2.35;;;1.70;;
15271;SDS011;7737;51.578;7.268;2022-07-04T02:55:54;1.92;;;1.70;;
15271;SDS011;7737;51.578;7.268;2022-07-04T02:58:20;2.95;;;1.73;;
15271;SDS011;7737;51.578;7.268;2022-07-04T03:00:47;3.72;;;2.22;;
15271;SDS011;7737;51.578;7.268;2022-07-04T03:03:14;2.53;;;1.73;;
15271;SDS011;7737;51.578;7.268;2022-07-04T03:05:41;3.58;;;1.83;;
15271;SDS011;7737;51.578;7.268;2022-07-04T03:08:07;4.65;;;2.20;;
15271;SDS011;7737;51.578;7.268;2022-07-04T03:10:34;2.75;;;2.28;;
15271;SDS011;7737;51.578;7.268;2022-07-04T03:13:00;4.15;;;2.38;;
15271;SDS011;7737;51.578;7.268;2022-07-04T03:15:27;5.85;;;3.10;;
15271;SDS011;7737;51.578;7.268;2022-07-04T03:17:53;3.65;;;3.20;;
15271;SDS011;7737;51.578;7.268;2022-07-04T03:20:21;3.40;;;2.85;;
15271;SDS011;7737;51.578;7.268;2022-07-04T03:22:47;5.93;;;3.30;;
15271;SDS011;7737;51.578;7.268;2022-07-04T03:25:14;8.20;;;2.97;;
15271;SDS011;7737;51.578;7.268;2022-07-04T03:27:40;6.40;;;3.03;;
15271;SDS011;7737;51.578;7.268;2022-07-04T03:30:07;3.63;;;2.72;;
15271;SDS011;7737;51.578;7.268;2022-07-04T03:32:34;3.47;;;2.13;;
15271;SDS011;7737;51.578;7.268;2022-07-04T03:35:00;5.53;;;2.92;;
15271;SDS011;7737;51.578;7.268;2022-07-04T03:37:28;4.72;;;2.50;;
15271;SDS011;7737;51.578;7.268;2022-07-04T03:39:54;4.72;;;2.63;;
15271;SDS011;7737;51.578;7.268;2022-07-04T03:42:21;4.45;;;2.65;;
15271;SDS011;7737;51.578;7.268;2022-07-04T03:44:47;5.05;;;2.35;;
15271;SDS011;7737;51.578;7.268;2022-07-04T03:47:14;4.13;;;2.08;;
15271;SDS011;7737;51.578;7.268;2022-07-04T03:49:40;7.00;;;2.58;;
15271;SDS011;7737;51.578;7.268;2022-07-04T03:52:07;5.55;;;2.95;;
15271;SDS011;7737;51.578;7.268;2022-07-04T03:54:35;3.67;;;2.88;;
15271;SDS011;7737;51.578;7.268;2022-07-04T03:57:02;5.78;;;3.25;;
15271;SDS011;7737;51.578;7.268;2022-07-04T03:59:28;4.65;;;3.47;;
15271;SDS011;7737;51.578;7.268;2022-07-04T04:01:55;4.15;;;3.75;;
15271;SDS011;7737;51.578;7.268;2022-07-04T04:04:21;4.47;;;3.78;;
15271;SDS011;7737;51.578;7.268;2022-07-04T04:07:06;6.72;;;3.03;;
15271;SDS011;7737;51.578;7.268;2022-07-04T04:09:32;4.38;;;3.97;;
15271;SDS011;7737;51.578;7.268;2022-07-04T04:12:00;3.67;;;3.15;;
15271;SDS011;7737;51.578;7.268;2022-07-04T04:14:26;3.60;;;3.17;;
15271;SDS011;7737;51.578;7.268;2022-07-04T04:16:53;4.28;;;3.03;;
15271;SDS011;7737;51.578;7.268;2022-07-04T04:19:20;4.78;;;3.63;;
15271;SDS011;7737;51.578;7.268;2022-07-04T04:21:47;4.63;;;3.38;;
15271;SDS011;7737;51.578;7.268;2022-07-04T04:24:13;4.60;;;3.00;;
15271;SDS011;7737;51.578;7.268;2022-07-04T04:26:40;7.28;;;3.95;;
15271;SDS011;7737;51.578;7.268;2022-07-04T04:29:08;7.68;;;4.00;;
15271;SDS011;7737;51.578;7.268;2022-07-04T04:31:34;5.95;;;4.10;;
15271;SDS011;7737;51.578;7.268;2022-07-04T04:34:01;6.50;;;4.22;;
15271;SDS011;7737;51.578;7.268;2022-07-04T04:36:27;6.22;;;3.80;;
15271;SDS011;7737;51.578;7.268;2022-07-04T04:38:54;8.10;;;3.85;;
15271;SDS011;7737;51.578;7.268;2022-07-04T04:41:20;6.15;;;4.47;;
15271;SDS011;7737;51.578;7.268;2022-07-04T04:43:47;5.32;;;3.83;;
15271;SDS011;7737;51.578;7.268;2022-07-04T04:46:15;5.90;;;5.10;;
15271;SDS011;7737;51.578;7.268;2022-07-04T04:48:42;8.70;;;7.03;;
15271;SDS011;7737;51.578;7.268;2022-07-04T04:51:08;9.35;;;8.55;;
15271;SDS011;7737;51.578;7.268;2022-07-04T04:53:34;19.98;;;18.67;;
15271;SDS011;7737;51.578;7.268;2022-07-04T04:56:01;32.17;;;29.95;;
15271;SDS011;7737;51.578;7.268;2022-07-04T04:58:28;50.67;;;47.95;;
15271;SDS011;7737;51.578;7.268;2022-07-04T05:00:55;45.15;;;42.50;;
15271;SDS011;7737;51.578;7.268;2022-07-04T05:03:23;55.72;;;52.97;;
15271;SDS011;7737;51.578;7.268;2022-07-04T05:05:49;27.92;;;26.23;;
15271;SDS011;7737;51.578;7.268;2022-07-04T05:08:16;12.38;;;11.38;;
15271;SDS011;7737;51.578;7.268;2022-07-04T05:10:42;9.25;;;8.38;;
15271;SDS011;7737;51.578;7.268;2022-07-04T05:13:09;5.85;;;3.50;;
15271;SDS011;7737;51.578;7.268;2022-07-04T05:15:35;9.40;;;5.88;;
15271;SDS011;7737;51.578;7.268;2022-07-04T05:18:02;9.45;;;7.03;;
15271;SDS011;7737;51.578;7.268;2022-07-04T05:20:30;6.60;;;4.50;;
15271;SDS011;7737;51.578;7.268;2022-07-04T05:22:57;7.03;;;4.43;;
15271;SDS011;7737;51.578;7.268;2022-07-04T05:25:24;5.70;;;3.78;;
15271;SDS011;7737;51.578;7.268;2022-07-04T05:27:51;5.60;;;4.20;;
15271;SDS011;7737;51.578;7.268;2022-07-04T05:30:17;8.70;;;4.90;;
15271;SDS011;7737;51.578;7.268;2022-07-04T05:32:44;8.68;;;4.53;;
15271;SDS011;7737;51.578;7.268;2022-07-04T05:35:10;10.52;;;4.70;;
15271;SDS011;7737;51.578;7.268;2022-07-04T05:37:38;6.35;;;4.47;;
15271;SDS011;7737;51.578;7.268;2022-07-04T05:40:05;6.50;;;4.35;;
15271;SDS011;7737;51.578;7.268;2022-07-04T05:42:33;6.43;;;4.78;;
15271;SDS011;7737;51.578;7.268;2022-07-04T05:45:00;7.57;;;4.05;;
15271;SDS011;7737;51.578;7.268;2022-07-04T05:47:26;7.88;;;4.13;;
15271;SDS011;7737;51.578;7.268;2022-07-04T05:49:53;5.90;;;3.67;;
15271;SDS011;7737;51.578;7.268;2022-07-04T05:52:19;7.65;;;4.88;;
15271;SDS011;7737;51.578;7.268;2022-07-04T05:54:47;7.88;;;3.92;;
15271;SDS011;7737;51.578;7.268;2022-07-04T05:57:14;8.43;;;3.72;;
15271;SDS011;7737;51.578;7.268;2022-07-04T05:59:40;7.80;;;4.47;;
15271;SDS011;7737;51.578;7.268;2022-07-04T06:02:07;6.78;;;4.28;;
15271;SDS011;7737;51.578;7.268;2022-07-04T06:04:33;6.90;;;3.83;;
15271;SDS011;7737;51.578;7.268;2022-07-04T06:07:00;7.43;;;3.90;;
15271;SDS011;7737;51.578;7.268;2022-07-04T06:09:26;7.50;;;3.60;;
15271;SDS011;7737;51.578;7.268;2022-07-04T06:11:54;6.32;;;3.22;;
15271;SDS011;7737;51.578;7.268;2022-07-04T06:14:20;6.13;;;3.00;;
15271;SDS011;7737;51.578;7.268;2022-07-04T06:16:47;5.90;;;3.08;;
15271;SDS011;7737;51.578;7.268;2022-07-04T06:19:13;6.10;;;2.88;;
15271;SDS011;7737;51.578;7.268;2022-07-04T06:21:40;6.93;;;2.95;;
15271;SDS011;7737;51.578;7.268;2022-07-04T06:24:06;6.57;;;2.70;;
15271;SDS011;7737;51.578;7.268;2022-07-04T06:26:33;6.15;;;2.42;;
15271;SDS011;7737;51.578;7.268;2022-07-04T06:29:00;5.20;;;2.20;;
15271;SDS011;7737;51.578;7.268;2022-07-04T06:31:27;5.85;;;2.42;;
15271;SDS011;7737;51.578;7.268;2022-07-04T06:33:54;7.93;;;2.50;;
15271;SDS011;7737;51.578;7.268;2022-07-04T06:36:38;6.15;;;2.42;;
15271;SDS011;7737;51.578;7.268;2022-07-04T06:39:04;6.38;;;2.97;;
15271;SDS011;7737;51.578;7.268;2022-07-04T06:41:31;8.90;;;3.17;;
15271;SDS011;7737;51.578;7.268;2022-07-04T06:43:57;6.60;;;3.20;;
15271;SDS011;7737;51.578;7.268;2022-07-04T06:46:26;8.52;;;3.45;;
15271;SDS011;7737;51.578;7.268;2022-07-04T06:48:52;6.65;;;3.92;;
15271;SDS011;7737;51.578;7.268;2022-07-04T06:51:18;10.23;;;3.80;;
15271;SDS011;7737;51.578;7.268;2022-07-04T06:53:45;9.02;;;4.05;;
15271;SDS011;7737;51.578;7.268;2022-07-04T06:56:11;6.95;;;4.10;;
15271;SDS011;7737;51.578;7.268;2022-07-04T06:58:38;10.23;;;4.30;;
15271;SDS011;7737;51.578;7.268;2022-07-04T07:01:04;6.82;;;3.60;;
15271;SDS011;7737;51.578;7.268;2022-07-04T07:03:32;5.80;;;3.40;;
15271;SDS011;7737;51.578;7.268;2022-07-04T07:05:59;6.47;;;3.00;;
15271;SDS011;7737;51.578;7.268;2022-07-04T07:08:27;7.75;;;2.63;;
15271;SDS011;7737;51.578;7.268;2022-07-04T07:10:53;6.10;;;2.50;;
15271;SDS011;7737;51.578;7.268;2022-07-04T07:13:20;6.93;;;2.70;;
15271;SDS011;7737;51.578;7.268;2022-07-04T07:15:46;4.97;;;2.30;;
15271;SDS011;7737;51.578;7.268;2022-07-04T07:18:14;5.13;;;2.53;;
15271;SDS011;7737;51.578;7.268;2022-07-04T07:20:42;3.47;;;1.85;;
15271;SDS011;7737;51.578;7.268;2022-07-04T07:23:09;4.53;;;1.80;;
15271;SDS011;7737;51.578;7.268;2022-07-04T07:25:35;4.03;;;2.75;;
15271;SDS011;7737;51.578;7.268;2022-07-04T07:28:02;4.82;;;4.28;;
15271;SDS011;7737;51.578;7.268;2022-07-04T07:30:28;8.15;;;7.43;;
15271;SDS011;7737;51.578;7.268;2022-07-04T07:32:55;8.52;;;7.72;;
15271;SDS011;7737;51.578;7.268;2022-07-04T07:35:21;6.15;;;5.57;;
15271;SDS011;7737;51.578;7.268;2022-07-04T07:37:49;10.48;;;9.85;;
15271;SDS011;7737;51.578;7.268;2022-07-04T07:40:16;14.45;;;13.35;;
15271;SDS011;7737;51.578;7.268;2022-07-04T07:42:42;24.58;;;23.05;;
15271;SDS011;7737;51.578;7.268;2022-07-04T07:45:09;31.58;;;29.65;;
15271;SDS011;7737;51.578;7.268;2022-07-04T07:47:35;32.60;;;30.67;;
15271;SDS011;7737;51.578;7.268;2022-07-04T07:50:02;47.97;;;45.25;;
15271;SDS011;7737;51.578;7.268;2022-07-04T07:52:30;62.22;;;58.38;;
15271;SDS011;7737;51.578;7.268;2022-07-04T07:54:58;130.57;;;123.80;;
15271;SDS011;7737;51.578;7.268;2022-07-04T07:57:24;133.40;;;126.75;;
15271;SDS011;7737;51.578;7.268;2022-07-04T07:59:51;130.90;;;124.07;;
15271;SDS011;7737;51.578;7.268;2022-07-04T08:02:17;98.20;;;92.72;;
15271;SDS011;7737;51.578;7.268;2022-07-04T08:04:43;79.03;;;74.28;;
15271;SDS011;7737;51.578;7.268;2022-07-04T08:07:10;90.13;;;85.20;;
15271;SDS011;7737;51.578;7.268;2022-07-04T08:09:38;116.88;;;110.78;;
15271;SDS011;7737;51.578;7.268;2022-07-04T08:12:06;167.55;;;159.30;;
15271;SDS011;7737;51.578;7.268;2022-07-04T08:14:33;170.55;;;162.75;;
15271;SDS011;7737;51.578;7.268;2022-07-04T08:17:01;170.80;;;162.70;;
15271;SDS011;7737;51.578;7.268;2022-07-04T08:19:30;171.10;;;163.13;;
15271;SDS011;7737;51.578;7.268;2022-07-04T08:21:56;195.77;;;187.35;;
15271;SDS011;7737;51.578;7.268;2022-07-04T08:24:23;176.30;;;168.27;;
15271;SDS011;7737;51.578;7.268;2022-07-04T08:26:49;192.18;;;183.75;;
15271;SDS011;7737;51.578;7.268;2022-07-04T08:29:18;194.85;;;186.45;;
15271;SDS011;7737;51.578;7.268;2022-07-04T08:31:45;177.90;;;169.93;;
15271;SDS011;7737;51.578;7.268;2022-07-04T08:34:12;186.30;;;177.70;;
15271;SDS011;7737;51.578;7.268;2022-07-04T08:36:38;234.77;;;223.90;;
15271;SDS011;7737;51.578;7.268;2022-07-04T08:39:05;241.57;;;230.45;;
15271;SDS011;7737;51.578;7.268;2022-07-04T08:41:33;252.75;;;241.05;;
15271;SDS011;7737;51.578;7.268;2022-07-04T08:44:03;219.85;;;209.38;;
15271;SDS011;7737;51.578;7.268;2022-07-04T08:46:33;240.98;;;229.25;;
15271;SDS011;7737;51.578;7.268;2022-07-04T08:49:03;253.00;;;241.00;;
15271;SDS011;7737;51.578;7.268;2022-07-04T08:51:37;279.27;;;265.50;;
15271;SDS011;7737;51.578;7.268;2022-07-04T08:54:13;283.80;;;270.10;;
15271;SDS011;7737;51.578;7.268;2022-07-04T08:56:58;170.35;;;161.35;;
15271;SDS011;7737;51.578;7.268;2022-07-04T08:59:42;125.10;;;119.03;;
15271;SDS011;7737;51.578;7.268;2022-07-04T09:02:15;134.50;;;128.48;;
15271;SDS011;7737;51.578;7.268;2022-07-04T09:04:43;156.65;;;149.40;;
15271;SDS011;7737;51.578;7.268;2022-07-04T09:07:10;136.20;;;129.43;;
15271;SDS011;7737;51.578;7.268;2022-07-04T09:09:37;167.55;;;160.05;;
15271;SDS011;7737;51.578;7.268;2022-07-04T09:12:06;238.50;;;228.07;;
15271;SDS011;7737;51.578;7.268;2022-07-04T09:14:32;228.05;;;217.50;;
15271;SDS011;7737;51.578;7.268;2022-07-04T09:16:59;234.02;;;223.23;;
15271;SDS011;7737;51.578;7.268;2022-07-04T09:19:27;234.68;;;223.85;;
15271;SDS011;7737;51.578;7.268;2022-07-04T09:21:53;223.40;;;213.15;;
15271;SDS011;7737;51.578;7.268;2022-07-04T09:24:23;249.98;;;238.52;;
15271;SDS011;7737;51.578;7.268;2022-07-04T09:27:09;254.63;;;243.40;;
15271;SDS011;7737;51.578;7.268;2022-07-04T09:29:36;238.88;;;227.63;;
15271;SDS011;7737;51.578;7.268;2022-07-04T09:32:23;218.60;;;207.82;;
15271;SDS011;7737;51.578;7.268;2022-07-04T09:35:00;201.05;;;190.95;;
15271;SDS011;7737;51.578;7.268;2022-07-04T09:37:32;235.32;;;224.25;;
15271;SDS011;7737;51.578;7.268;2022-07-04T09:40:00;117.25;;;111.63;;
15271;SDS011;7737;51.578;7.268;2022-07-04T09:42:33;117.40;;;111.63;;
15271;SDS011;7737;51.578;7.268;2022-07-04T09:45:03;133.85;;;127.32;;
15271;SDS011;7737;51.578;7.268;2022-07-04T09:47:31;118.70;;;112.97;;
15271;SDS011;7737;51.578;7.268;2022-07-04T09:50:00;162.27;;;154.55;;
15271;SDS011;7737;51.578;7.268;2022-07-04T09:52:27;148.77;;;141.85;;
15271;SDS011;7737;51.578;7.268;2022-07-04T09:54:56;135.48;;;128.82;;
15271;SDS011;7737;51.578;7.268;2022-07-04T09:57:24;142.98;;;136.15;;
15271;SDS011;7737;51.578;7.268;2022-07-04T09:59:51;190.55;;;181.90;;
15271;SDS011;7737;51.578;7.268;2022-07-04T10:02:18;202.85;;;193.52;;
15271;SDS011;7737;51.578;7.268;2022-07-04T10:04:46;146.57;;;139.30;;
15271;SDS011;7737;51.578;7.268;2022-07-04T10:10:01;161.35;;;153.45;;
15271;SDS011;7737;51.578;7.268;2022-07-04T10:12:47;164.27;;;156.60;;
15271;SDS011;7737;51.578;7.268;2022-07-04T10:15:14;181.05;;;171.90;;
15271;SDS011;7737;51.578;7.268;2022-07-04T10:17:41;163.85;;;156.02;;
15271;SDS011;7737;51.578;7.268;2022-07-04T10:20:08;181.35;;;172.55;;
15271;SDS011;7737;51.578;7.268;2022-07-04T10:22:38;134.77;;;128.10;;
15271;SDS011;7737;51.578;7.268;2022-07-04T10:25:05;158.98;;;151.52;;
15271;SDS011;7737;51.578;7.268;2022-07-04T10:27:33;163.43;;;155.43;;
15271;SDS011;7737;51.578;7.268;2022-07-04T10:30:01;199.38;;;189.68;;
15271;SDS011;7737;51.578;7.268;2022-07-04T10:32:29;149.85;;;142.32;;
15271;SDS011;7737;51.578;7.268;2022-07-04T10:34:58;187.52;;;178.50;;
15271;SDS011;7737;51.578;7.268;2022-07-04T10:37:24;239.32;;;228.65;;
15271;SDS011;7737;51.578;7.268;2022-07-04T10:39:53;172.90;;;164.95;;
15271;SDS011;7737;51.578;7.268;2022-07-04T10:42:22;165.65;;;157.98;;
15271;SDS011;7737;51.578;7.268;2022-07-04T10:44:49;153.45;;;145.85;;
15271;SDS011;7737;51.578;7.268;2022-07-04T10:47:20;148.38;;;140.98;;
15271;SDS011;7737;51.578;7.268;2022-07-04T10:49:49;149.30;;;141.80;;
15271;SDS011;7737;51.578;7.268;2022-07-04T10:52:17;162.43;;;154.82;;
15271;SDS011;7737;51.578;7.268;2022-07-04T10:54:44;143.32;;;136.43;;
15271;SDS011;7737;51.578;7.268;2022-07-04T10:57:14;160.15;;;152.30;;
15271;SDS011;7737;51.578;7.268;2022-07-04T10:59:42;186.93;;;178.25;;
15271;SDS011;7737;51.578;7.268;2022-07-04T11:02:25;196.02;;;187.13;;
15271;SDS011;7737;51.578;7.268;2022-07-04T11:04:59;190.30;;;180.65;;
15271;SDS011;7737;51.578;7.268;2022-07-04T11:10:22;172.93;;;164.70;;
15271;SDS011;7737;51.578;7.268;2022-07-04T11:16:02;203.57;;;193.02;;
15271;SDS011;7737;51.578;7.268;2022-07-04T11:18:29;192.30;;;182.63;;
15271;SDS011;7737;51.578;7.268;2022-07-04T11:20:56;224.30;;;213.25;;
15271;SDS011;7737;51.578;7.268;2022-07-04T11:23:22;207.23;;;197.27;;
15271;SDS011;7737;51.578;7.268;2022-07-04T11:25:50;228.75;;;217.88;;
15271;SDS011;7737;51.578;7.268;2022-07-04T11:28:20;229.52;;;218.77;;
15271;SDS011;7737;51.578;7.268;2022-07-04T11:30:48;198.75;;;189.27;;
15271;SDS011;7737;51.578;7.268;2022-07-04T11:33:18;246.88;;;234.65;;
15271;SDS011;7737;51.578;7.268;2022-07-04T11:38:42;288.42;;;274.85;;
15271;SDS011;7737;51.578;7.268;2022-07-04T11:41:10;235.15;;;223.63;;
15271;SDS011;7737;51.578;7.268;2022-07-04T11:43:55;272.15;;;259.30;;
15271;SDS011;7737;51.578;7.268;2022-07-04T11:46:39;273.23;;;260.42;;
15271;SDS011;7737;51.578;7.268;2022-07-04T11:49:09;265.40;;;252.68;;
15271;SDS011;7737;51.578;7.268;2022-07-04T11:51:40;268.30;;;255.82;;
15271;SDS011;7737;51.578;7.268;2022-07-04T11:54:07;253.05;;;241.02;;
15271;SDS011;7737;51.578;7.268;2022-07-04T11:56:34;242.13;;;230.20;;
15271;SDS011;7737;51.578;7.268;2022-07-04T11:59:09;263.98;;;251.48;;
15271;SDS011;7737;51.578;7.268;2022-07-04T12:01:37;258.60;;;246.77;;
15271;SDS011;7737;51.578;7.268;2022-07-04T12:04:14;276.90;;;262.02;;
15271;SDS011;7737;51.578;7.268;2022-07-04T12:06:42;244.20;;;232.38;;
15271;SDS011;7737;51.578;7.268;2022-07-04T12:09:09;238.07;;;226.50;;
15271;SDS011;7737;51.578;7.268;2022-07-04T12:11:49;375.33;;;355.40;;
15271;SDS011;7737;51.578;7.268;2022-07-04T12:14:17;321.48;;;304.70;;
15271;SDS011;7737;51.578;7.268;2022-07-04T12:16:44;385.88;;;364.33;;
15271;SDS011;7737;51.578;7.268;2022-07-04T12:19:12;486.27;;;462.83;;
15271;SDS011;7737;51.578;7.268;2022-07-04T12:21:39;495.58;;;472.63;;
15271;SDS011;7737;51.578;7.268;2022-07-04T12:24:08;467.80;;;446.30;;
15271;SDS011;7737;51.578;7.268;2022-07-04T12:26:41;429.92;;;410.20;;
15271;SDS011;7737;51.578;7.268;2022-07-04T12:29:11;370.02;;;353.88;;
15271;SDS011;7737;51.578;7.268;2022-07-04T12:31:39;386.02;;;368.92;;
15271;SDS011;7737;51.578;7.268;2022-07-04T12:34:13;370.25;;;353.73;;
15271;SDS011;7737;51.578;7.268;2022-07-04T12:36:47;372.15;;;355.30;;
15271;SDS011;7737;51.578;7.268;2022-07-04T12:39:26;340.15;;;324.48;;
15271;SDS011;7737;51.578;7.268;2022-07-04T12:42:02;334.90;;;320.13;;
15271;SDS011;7737;51.578;7.268;2022-07-04T12:44:30;340.73;;;325.15;;
15271;SDS011;7737;51.578;7.268;2022-07-04T12:46:58;344.75;;;329.08;;
15271;SDS011;7737;51.578;7.268;2022-07-04T12:49:25;331.80;;;316.13;;
15271;SDS011;7737;51.578;7.268;2022-07-04T12:51:51;340.42;;;325.80;;
15271;SDS011;7737;51.578;7.268;2022-07-04T12:54:18;292.33;;;279.35;;
15271;SDS011;7737;51.578;7.268;2022-07-04T12:56:45;282.63;;;269.92;;
15271;SDS011;7737;51.578;7.268;2022-07-04T12:59:13;301.63;;;288.15;;
15271;SDS011;7737;51.578;7.268;2022-07-04T13:01:41;309.35;;;296.10;;
15271;SDS011;7737;51.578;7.268;2022-07-04T13:04:10;340.70;;;325.77;;
15271;SDS011;7737;51.578;7.268;2022-07-04T13:06:37;328.73;;;314.52;;
15271;SDS011;7737;51.578;7.268;2022-07-04T13:09:05;279.95;;;267.90;;
15271;SDS011;7737;51.578;7.268;2022-07-04T13:11:32;283.27;;;270.70;;
15271;SDS011;7737;51.578;7.268;2022-07-04T13:14:16;264.90;;;253.43;;
15271;SDS011;7737;51.578;7.268;2022-07-04T13:16:43;295.60;;;282.88;;
15271;SDS011;7737;51.578;7.268;2022-07-04T13:19:11;269.50;;;257.42;;
15271;SDS011;7737;51.578;7.268;2022-07-04T13:21:38;292.30;;;279.67;;
15271;SDS011;7737;51.578;7.268;2022-07-04T13:24:04;294.08;;;281.00;;
15271;SDS011;7737;51.578;7.268;2022-07-04T13:26:31;290.88;;;278.48;;
15271;SDS011;7737;51.578;7.268;2022-07-04T13:28:58;284.77;;;272.45;;
15271;SDS011;7737;51.578;7.268;2022-07-04T13:31:26;252.65;;;241.85;;
15271;SDS011;7737;51.578;7.268;2022-07-04T13:33:53;266.67;;;255.32;;
15271;SDS011;7737;51.578;7.268;2022-07-04T13:36:21;239.73;;;229.35;;
15271;SDS011;7737;51.578;7.268;2022-07-04T13:38:48;237.20;;;226.77;;
15271;SDS011;7737;51.578;7.268;2022-07-04T13:41:14;224.90;;;215.23;;
15271;SDS011;7737;51.578;7.268;2022-07-04T13:43:41;233.13;;;222.60;;
15271;SDS011;7737;51.578;7.268;2022-07-04T13:46:07;225.95;;;215.93;;
15271;SDS011;7737;51.578;7.268;2022-07-04T13:48:34;231.00;;;220.52;;
15271;SDS011;7737;51.578;7.268;2022-07-04T13:51:01;236.55;;;225.90;;
15271;SDS011;7737;51.578;7.268;2022-07-04T13:53:28;218.23;;;208.45;;
15271;SDS011;7737;51.578;7.268;2022-07-04T13:55:58;229.45;;;219.27;;
15271;SDS011;7737;51.578;7.268;2022-07-04T13:58:24;239.35;;;228.77;;
15271;SDS011;7737;51.578;7.268;2022-07-04T14:00:51;211.15;;;201.32;;
15271;SDS011;7737;51.578;7.268;2022-07-04T14:03:17;199.98;;;190.38;;
15271;SDS011;7737;51.578;7.268;2022-07-04T14:05:44;211.93;;;202.23;;
15271;SDS011;7737;51.578;7.268;2022-07-04T14:08:11;213.88;;;203.52;;
15271;SDS011;7737;51.578;7.268;2022-07-04T14:10:39;203.20;;;193.48;;
15271;SDS011;7737;51.578;7.268;2022-07-04T14:13:06;210.40;;;200.23;;
15271;SDS011;7737;51.578;7.268;2022-07-04T14:15:32;217.35;;;207.27;;
15271;SDS011;7737;51.578;7.268;2022-07-04T14:17:59;224.10;;;213.75;;
15271;SDS011;7737;51.578;7.268;2022-07-04T14:20:25;223.65;;;213.30;;
15271;SDS011;7737;51.578;7.268;2022-07-04T14:22:52;211.57;;;201.50;;
15271;SDS011;7737;51.578;7.268;2022-07-04T14:25:18;188.52;;;179.73;;
15271;SDS011;7737;51.578;7.268;2022-07-04T14:27:46;200.63;;;191.30;;
15271;SDS011;7737;51.578;7.268;2022-07-04T14:30:12;187.88;;;178.77;;
15271;SDS011;7737;51.578;7.268;2022-07-04T14:32:39;207.10;;;197.50;;
15271;SDS011;7737;51.578;7.268;2022-07-04T14:35:05;207.68;;;198.60;;
15271;SDS011;7737;51.578;7.268;2022-07-04T14:37:32;211.60;;;202.02;;
15271;SDS011;7737;51.578;7.268;2022-07-04T14:39:59;211.45;;;201.93;;
15271;SDS011;7737;51.578;7.268;2022-07-04T14:42:25;212.55;;;202.68;;
15271;SDS011;7737;51.578;7.268;2022-07-04T14:44:53;185.88;;;177.25;;
15271;SDS011;7737;51.578;7.268;2022-07-04T14:47:20;194.35;;;185.13;;
15271;SDS011;7737;51.578;7.268;2022-07-04T14:49:47;193.02;;;183.73;;
15271;SDS011;7737;51.578;7.268;2022-07-04T14:52:13;202.35;;;192.82;;